Share

Oakville, TX (78060)

2:46 PM CDT on April 24, 2014 (GMT -0500)
RAWS GEORGE WEST TX US (MGWRT2) Elev 214 ft | 28.37 °N, 98.12 °W | Change Station

Current weather conditions updated 40 minutes ago

Overcast
Overcast
82 °F
Feels Like 84 °F
N
4
Wind Variable Wind from ESE
Gusts 6.0 mph
Sunrise 6:58 AM
Sunset 8:03 PM
Moon Waning Crescent

Today is forecast to be nearly the same temperature as yesterday.

Pressure 29.83 in
Visibility 10.0 miles
Clouds Overcast 3900 ft
Heat Index 84 °F
Dew Point 66 °F
Humidity 59%
Rainfall 0.00 in
Snow Depth Not available.
UV 3 out of 16
Pollen 7.30 out of 12
Air Quality Not available.
Flu Activity Local Activity
METAR KBEA 241935Z AUTO 19005KT 10SM OVC039 29/19 A2983 RMK AO2 T02850192

More Conditions Fewer Conditions

Pressure 29.83 in
Visibility 10.0 miles
Clouds Overcast 3900 ft
Heat Index 84 °F
Dew Point 66 °F
Humidity 59%
Rainfall 0.00 in
Snow Depth Not available.
UV 3 out of 16
Pollen 7.30 out of 12
Air Quality Not available.
Flu Activity Local Activity
METAR KBEA 241935Z AUTO 19005KT 10SM OVC039 29/19 A2983 RMK AO2 T02850192

More Conditions Fewer Conditions

10-Day Weather Forecast

Almanac

Astronomy

Apr. 24, 2014 Rise Set
Actual Time 6:58 AM CDT 8:03 PM CDT
Civil Twilight 6:33 AM CDT 8:27 PM CDT
Nautical Twilight 6:04 AM CDT 8:57 PM CDT
Astronomical Twilight 5:34 AM CDT 9:27 PM CDT
Moon 3:44 AM CDT 3:43 PM CDT
Length of Visible Light 13h 54m
Length of Day
13h 05m
Tomorrow will be 1m 31s longer.
Waning Crescent, 23% of the Moon is Illuminated
Today
Waning Crescent
Apr 29
New
May 6
First Quarter
May 14
Full
May 21
Last Quarter

Today's Extremes

State Highs State Lows

Community

  • Sunset at Apalachicola Bay, Florida
    Sunset at Apalachicola Bay, Florida
  • Clouds mov'n in
    Clouds mov'n in
  • Stacked
    Stacked
  • clouds approaching Red Sox Nation
    clouds approaching Red Sox Nation
  • Balance
    Balance

WunderPhotos

Upload Photos

1,704,708 photos uploaded!

Nearby

Snow Depth

Station Depth Elevation
No new snow has been reported.

Coastal Water Temperatures

Place Temperature
No Stations Reporting

Earthquake Activity

City Distance Mag. Time & Date
No recent earthquake activity has been reported nearby.
Minimum magnitude displayed is 2.5.

Nearby Weather Stations

Station Location Temp. Heat Index Dew Point Humidity Wind Precip. Elev Updated Type
RAWS GEORGE WEST TX, Three Rivers, TX 82 °F 84 °F 66 °F 59% ESE  at  4 mph 0.00 in / hr 214 ft 2:06 PM CDT MADIS
MesoWest WHITT , Whitsett, TX 77 °F 75 °F - - North  at  - 0.00 in / hr 202 ft 12:05 PM CDT MADIS
Sunset Villas, Mathis, TX 84.6 °F 89 °F 70 °F 62% WNW  at  0.9 mph 0.00 in / hr 120 ft 2:46 PM CDT Rapid Fire
Argenta Community, Mathis, TX 81.4 °F 85 °F 70 °F 68% NE  at  0.0 mph 0.00 in / hr 215 ft 2:46 PM CDT Rapid Fire

Show More Stations Show Fewer Stations

What do you think?

We're not finished. Please let us know what you like, what you don't like, and what you are still missing.